Time;durP1;ratioP1;P1;durP2;ratioP2;P2;SDS_P1;SDS_P2;PMS_P1;PMS_P2;Temp;Humidity;BMP_temperature;BMP_pressure;BME280_temperature;BME280_humidity;BME280_pressure;Samples;Min_cycle;Max_cycle;Signal;HPM_P1;HPM_P2
2023/02/10 00:00:23;;;;;;;34.00;19.60;;;;;;;6.23;59.96;101583.38;5009990;28;20054;-80
2023/02/10 00:02:50;;;;;;;32.47;19.05;;;;;;;6.23;60.07;101586.88;5009219;28;20132;-80
2023/02/10 00:05:17;;;;;;;36.75;20.45;;;;;;;6.23;60.17;101583.38;5009542;28;20046;-80
2023/02/10 00:07:43;;;;;;;39.22;20.58;;;;;;;6.23;60.43;101588.63;5009888;28;20050;-80
2023/02/10 00:10:10;;;;;;;37.17;20.50;;;;;;;6.23;60.38;101584.25;5009853;28;20140;-80
2023/02/10 00:12:37;;;;;;;34.63;21.15;;;;;;;6.22;60.43;101590.38;5008766;28;20050;-80
2023/02/10 00:15:05;;;;;;;38.38;21.75;;;;;;;6.22;60.40;101593.00;5009541;28;20054;-80
2023/02/10 00:17:31;;;;;;;41.35;21.02;;;;;;;6.22;60.26;101595.63;5007416;28;20057;-80
2023/02/10 00:19:58;;;;;;;40.30;22.65;;;;;;;6.22;60.26;101589.50;5003303;28;20054;-80
2023/02/10 00:22:25;;;;;;;39.83;23.63;;;;;;;6.19;60.72;101593.00;5008550;28;20046;-80
2023/02/10 00:24:51;;;;;;;41.47;23.50;;;;;;;6.16;60.91;101592.19;5002042;28;20144;-80
2023/02/10 00:27:22;;;;;;;44.78;23.55;;;;;;;6.13;60.87;101596.56;5009354;28;20496;-80
2023/02/10 00:29:51;;;;;;;44.75;22.40;;;;;;;6.10;60.87;101600.94;5009531;28;20077;-80
2023/02/10 00:32:18;;;;;;;38.08;23.00;;;;;;;6.06;60.85;101605.31;5005762;28;20044;-80
2023/02/10 00:34:45;;;;;;;39.95;22.63;;;;;;;6.01;60.95;101596.63;5000897;28;20447;-81
2023/02/10 00:37:11;;;;;;;38.80;24.25;;;;;;;5.97;61.34;101601.00;5009467;28;20135;-80
2023/02/10 00:39:38;;;;;;;45.47;24.75;;;;;;;5.94;61.16;101593.19;5000039;28;20140;-80
2023/02/10 00:42:04;;;;;;;46.00;25.30;;;;;;;5.89;61.62;101600.19;5008067;28;20081;-80
2023/02/10 00:44:31;;;;;;;45.03;25.08;;;;;;;5.89;61.45;101612.38;5009369;28;20068;-80
2023/02/10 00:46:58;;;;;;;50.22;25.48;;;;;;;5.82;61.52;101606.34;5011810;28;20064;-80
2023/02/10 00:49:25;;;;;;;41.92;24.05;;;;;;;5.77;61.69;101606.41;5012066;28;20541;-80
2023/02/10 00:51:53;;;;;;;40.67;23.30;;;;;;;5.74;61.46;101614.25;5008815;28;20104;-80
2023/02/10 00:54:19;;;;;;;45.35;24.08;;;;;;;5.69;61.51;101608.19;5004475;28;20053;-80
2023/02/10 00:56:46;;;;;;;43.25;22.80;;;;;;;5.63;61.66;101610.81;5011906;28;20062;-80
2023/02/10 00:59:13;;;;;;;44.20;23.13;;;;;;;5.56;61.70;101617.84;5012798;28;20055;-79
2023/02/10 01:01:39;;;;;;;41.35;22.77;;;;;;;5.50;61.84;101618.75;5012481;28;20510;-80
2023/02/10 01:04:06;;;;;;;42.53;22.30;;;;;;;5.44;62.16;101624.00;5012673;28;20089;-80
2023/02/10 01:06:33;;;;;;;45.03;23.23;;;;;;;5.38;62.20;101621.44;5012310;28;20064;-80
2023/02/10 01:08:59;;;;;;;42.05;23.35;;;;;;;5.34;62.32;101620.56;5012633;28;20140;-80
2023/02/10 01:11:26;;;;;;;49.67;23.33;;;;;;;5.28;62.50;101618.00;4995036;28;20135;-80
2023/02/10 01:13:52;;;;;;;49.58;24.45;;;;;;;5.25;62.88;101631.06;5012662;28;20076;-80
2023/02/10 01:16:19;;;;;;;44.75;23.52;;;;;;;5.20;63.14;101623.25;5005854;28;20483;-80
2023/02/10 01:18:46;;;;;;;43.00;22.27;;;;;;;5.17;63.32;101636.31;5004179;28;20104;-80
2023/02/10 01:21:16;;;;;;;41.70;22.13;;;;;;;5.13;63.80;101637.19;5012521;28;20054;-80
2023/02/10 01:23:44;;;;;;;44.10;22.02;;;;;;;5.08;63.76;101619.81;5012331;28;20125;-80
2023/02/10 01:26:11;;;;;;;41.70;22.02;;;;;;;5.07;64.07;101623.31;5007313;28;20056;-80
2023/02/10 01:28:39;;;;;;;45.10;21.92;;;;;;;5.04;63.98;101620.69;5012128;28;20484;-80
2023/02/10 01:31:11;;;;;;;39.13;20.85;;;;;;;5.02;64.89;101622.47;5006876;28;20088;-80
2023/02/10 01:33:38;;;;;;;41.90;21.75;;;;;;;5.02;63.79;101634.63;5011192;28;20141;-80
2023/02/10 01:36:06;;;;;;;40.88;20.88;;;;;;;5.01;64.06;101628.53;5012023;28;20136;-80
2023/02/10 01:38:33;;;;;;;37.20;20.75;;;;;;;4.99;63.98;101627.69;5011959;28;20053;-80
2023/02/10 01:41:00;;;;;;;37.38;21.42;;;;;;;4.97;64.20;101629.41;5006186;28;20096;-80
2023/02/10 01:43:27;;;;;;;39.10;20.15;;;;;;;4.95;64.01;101631.16;5012076;28;20056;-80
2023/02/10 01:45:53;;;;;;;41.40;21.58;;;;;;;4.93;64.45;101623.34;5004937;28;20064;-80
2023/02/10 01:48:22;;;;;;;43.47;21.58;;;;;;;4.90;64.50;101625.94;5011998;28;20049;-80
2023/02/10 01:50:54;;;;;;;42.88;21.73;;;;;;;4.91;65.59;101629.44;5004267;28;20150;-80
2023/02/10 01:53:22;;;;;;;45.85;21.10;;;;;;;4.90;64.95;101623.34;5011902;28;20070;-80
2023/02/10 01:55:53;;;;;;;39.25;21.27;;;;;;;4.90;65.21;101628.56;5011859;28;20064;-80
2023/02/10 01:58:23;;;;;;;45.78;21.35;;;;;;;4.88;64.97;101619.88;5010829;28;20071;-80
2023/02/10 02:00:49;;;;;;;42.95;21.17;;;;;;;4.88;64.71;101622.50;5004194;28;20046;-79
2023/02/10 02:03:16;;;;;;;41.58;20.67;;;;;;;4.88;64.85;101626.84;5010392;28;20137;-80
2023/02/10 02:05:44;;;;;;;45.42;23.58;;;;;;;4.87;65.45;101627.72;5011449;28;20093;-80
2023/02/10 02:08:14;;;;;;;39.38;21.02;;;;;;;4.85;65.74;101629.47;5011445;28;20050;-80
2023/02/10 02:10:53;;;;;;;48.45;23.58;;;;;;;4.81;66.52;101628.59;5011801;28;20046;-80
2023/02/10 02:13:34;;;;;;;43.25;22.40;;;;;;;4.80;66.40;101635.56;5011641;28;20060;-80
2023/02/10 02:16:23;;;;;;;40.88;21.95;;;;;;;4.77;66.05;101632.97;5011292;28;20133;-80
2023/02/10 02:19:12;;;;;;;40.78;21.27;;;;;;;4.73;66.69;101639.06;5003952;28;20054;-80
2023/02/10 02:22:03;;;;;;;41.80;20.55;;;;;;;4.72;66.65;101639.94;5011191;28;20050;-80
2023/02/10 02:24:46;;;;;;;38.08;21.10;;;;;;;4.71;66.22;101646.00;5009099;28;20054;-80
2023/02/10 02:27:12;;;;;;;38.45;21.50;;;;;;;4.71;65.26;101645.16;5011368;28;20054;-80
2023/02/10 02:29:59;;;;;;;38.58;20.30;;;;;;;4.68;66.12;101651.25;5011231;28;20050;-80
2023/02/10 02:32:31;;;;;;;42.40;21.65;;;;;;;4.67;65.66;101646.88;5011316;28;20134;-80
2023/02/10 02:35:09;;;;;;;39.50;21.48;;;;;;;4.62;66.58;101635.59;5010915;28;20045;-80
2023/02/10 02:37:40;;;;;;;40.50;20.92;;;;;;;4.63;65.67;101643.41;5009812;28;20157;-80
2023/02/10 02:40:07;;;;;;;37.33;20.48;;;;;;;4.63;65.46;101639.97;5005802;28;20104;-80
2023/02/10 02:42:34;;;;;;;43.40;21.80;;;;;;;4.61;65.26;101632.13;5010903;28;20060;-80
2023/02/10 02:45:08;;;;;;;44.10;21.63;;;;;;;4.57;66.13;101644.28;5010685;28;20050;-80
2023/02/10 02:47:34;;;;;;;39.63;21.20;;;;;;;4.59;65.36;101633.84;5009117;28;20045;-80
2023/02/10 02:50:01;;;;;;;36.72;21.45;;;;;;;4.58;65.36;101639.94;5011061;28;20057;-80
2023/02/10 02:52:37;;;;;;;46.83;21.52;;;;;;;4.53;66.90;101642.56;5010709;28;20060;-80
2023/02/10 02:55:12;;;;;;;43.42;22.85;;;;;;;4.52;65.97;101635.59;5010550;28;20052;-80
2023/02/10 02:57:55;;;;;;;38.35;20.75;;;;;;;4.51;66.48;101633.00;4976043;23;20041;-76
2023/02/10 03:00:26;;;;;;;41.88;22.25;;;;;;;4.51;65.49;101646.03;5030916;28;20057;-79
2023/02/10 03:02:53;;;;;;;43.05;21.05;;;;;;;4.49;65.38;101634.75;5030990;28;20140;-79
2023/02/10 03:05:23;;;;;;;36.65;20.75;;;;;;;4.48;65.80;101633.88;4984997;23;20049;-79
2023/02/10 03:07:50;;;;;;;37.58;21.45;;;;;;;4.47;65.76;101628.66;4993466;28;20050;-79
2023/02/10 03:10:16;;;;;;;36.40;20.27;;;;;;;4.47;65.58;101641.69;5011190;28;20046;-79
2023/02/10 03:12:43;;;;;;;46.38;21.95;;;;;;;4.46;65.88;101630.41;5011315;28;20112;-79
2023/02/10 03:15:11;;;;;;;39.70;21.88;;;;;;;4.45;65.99;101622.59;5011003;28;20073;-80
2023/02/10 03:17:37;;;;;;;39.03;21.48;;;;;;;4.43;65.98;101628.69;5011075;28;20056;-79
2023/02/10 03:20:05;;;;;;;48.97;22.23;;;;;;;4.43;66.35;101630.41;4993883;28;20108;-80
2023/02/10 03:22:34;;;;;;;37.75;21.90;;;;;;;4.40;66.92;101627.78;5011250;28;20054;-79
2023/02/10 03:25:01;;;;;;;44.10;22.02;;;;;;;4.40;66.70;101628.66;5011246;28;20065;-79
2023/02/10 03:27:28;;;;;;;35.47;21.27;;;;;;;4.40;66.27;101625.19;5011059;28;20049;-77
2023/02/10 03:29:55;;;;;;;36.72;21.38;;;;;;;4.41;66.31;101629.56;5011166;28;20045;-76
2023/02/10 03:32:21;;;;;;;42.78;21.58;;;;;;;4.39;66.62;101621.72;5011256;28;20050;-77
2023/02/10 03:34:48;;;;;;;43.63;22.60;;;;;;;4.38;66.21;101619.97;5011262;28;20050;-79
2023/02/10 03:37:15;;;;;;;39.03;21.17;;;;;;;4.38;66.33;101621.72;5010880;28;20565;-79
2023/02/10 03:39:41;;;;;;;44.75;21.48;;;;;;;4.36;66.18;101620.84;5011284;28;20049;-79
2023/02/10 03:42:09;;;;;;;45.45;20.92;;;;;;;4.35;66.58;101616.50;5010857;28;20042;-79
2023/02/10 03:44:36;;;;;;;42.78;20.67;;;;;;;4.33;66.87;101620.88;5011268;28;20115;-79
2023/02/10 03:47:03;;;;;;;40.50;20.92;;;;;;;4.32;66.80;101624.31;5011039;28;20053;-79
2023/02/10 03:49:29;;;;;;;43.35;21.73;;;;;;;4.30;66.73;101622.59;5011288;28;20058;-79
2023/02/10 03:51:56;;;;;;;40.00;21.55;;;;;;;4.29;66.96;101633.91;5010791;28;20142;-79
2023/02/10 03:54:23;;;;;;;43.08;22.38;;;;;;;4.28;66.75;101637.38;5010675;28;20503;-80
2023/02/10 03:56:49;;;;;;;37.53;21.35;;;;;;;4.29;66.90;101630.41;5010233;28;20046;-80
2023/02/10 03:59:16;;;;;;;46.10;22.00;;;;;;;4.28;66.83;101637.38;5011104;28;20054;-80
2023/02/10 04:01:43;;;;;;;39.70;20.48;;;;;;;4.27;66.84;101627.78;5010878;28;20058;-77
2023/02/10 04:04:09;;;;;;;34.78;21.13;;;;;;;4.26;66.51;101633.88;5010756;28;20487;-79
2023/02/10 04:06:36;;;;;;;39.88;22.67;;;;;;;4.25;66.86;101632.16;5010445;28;20092;-79
2023/02/10 04:09:03;;;;;;;41.10;20.92;;;;;;;4.23;66.50;101641.69;5010989;28;20572;-79
2023/02/10 04:11:29;;;;;;;39.67;21.02;;;;;;;4.22;66.70;101642.56;5010692;28;20544;-80
2023/02/10 04:13:56;;;;;;;41.25;21.15;;;;;;;4.21;66.98;101635.63;5010853;28;20061;-79
2023/02/10 04:16:27;;;;;;;44.30;21.65;;;;;;;4.20;66.93;101639.13;5010727;28;20061;-79
2023/02/10 04:18:54;;;;;;;34.38;21.02;;;;;;;4.20;66.82;101633.91;5010785;28;20050;-79
2023/02/10 04:21:21;;;;;;;43.22;22.63;;;;;;;4.20;67.10;101638.22;5012603;28;20081;-80
2023/02/10 04:23:48;;;;;;;43.17;23.83;;;;;;;4.20;67.05;101643.44;5014440;28;20494;-79
2023/02/10 04:26:14;;;;;;;47.08;24.10;;;;;;;4.18;66.77;101640.84;5014384;28;20080;-79
2023/02/10 04:28:41;;;;;;;41.33;22.27;;;;;;;4.17;66.88;101641.72;5014410;28;20410;-80
2023/02/10 04:31:09;;;;;;;44.33;24.33;;;;;;;4.17;66.89;101644.31;5014437;28;20728;-79
2023/02/10 04:33:36;;;;;;;44.30;23.27;;;;;;;4.15;66.68;101646.91;4996854;28;20077;-79
2023/02/10 04:36:03;;;;;;;43.38;22.27;;;;;;;4.14;66.61;101655.63;5014147;28;20529;-79
2023/02/10 04:38:30;;;;;;;38.90;22.10;;;;;;;4.14;66.86;101654.72;5013992;28;20137;-79
2023/02/10 04:40:57;;;;;;;39.03;24.25;;;;;;;4.11;67.03;101650.41;5014276;28;20058;-79
2023/02/10 04:43:24;;;;;;;45.42;24.17;;;;;;;4.09;66.75;101649.53;5014030;28;20132;-79
2023/02/10 04:45:51;;;;;;;41.97;23.15;;;;;;;4.07;66.77;101651.25;5013855;28;20727;-79
2023/02/10 04:48:17;;;;;;;44.45;23.17;;;;;;;4.06;67.05;101646.91;5013971;28;20108;-79
2023/02/10 04:50:44;;;;;;;46.50;25.17;;;;;;;4.04;67.43;101639.09;4996456;28;20100;-80
2023/02/10 04:53:11;;;;;;;43.38;24.88;;;;;;;4.02;66.86;101643.44;5013767;28;20540;-80
2023/02/10 04:55:38;;;;;;;43.08;24.20;;;;;;;4.01;66.94;101641.69;4996386;28;20069;-79
2023/02/10 04:58:05;;;;;;;42.00;22.75;;;;;;;3.99;66.86;101640.84;5013753;28;20053;-79
2023/02/10 05:00:32;;;;;;;43.08;24.02;;;;;;;3.98;67.14;101644.31;5013747;28;20042;-79
2023/02/10 05:03:08;;;;;;;47.15;24.83;;;;;;;3.94;68.78;101647.78;5013787;28;20060;-79
2023/02/10 05:05:35;;;;;;;40.03;23.20;;;;;;;3.95;66.89;101649.50;4995800;28;20046;-79
2023/02/10 05:08:01;;;;;;;44.75;24.63;;;;;;;3.94;67.53;101655.59;5013708;28;20049;-79
2023/02/10 05:10:28;;;;;;;39.00;24.35;;;;;;;3.93;67.39;101651.25;5014073;28;20046;-80
2023/02/10 05:12:55;;;;;;;45.10;24.40;;;;;;;3.91;67.53;101663.41;5013800;28;20096;-79
2023/02/10 05:15:22;;;;;;;42.92;24.30;;;;;;;3.91;67.37;101666.00;5013433;28;20104;-79
2023/02/10 05:17:48;;;;;;;47.72;24.92;;;;;;;3.90;68.05;101666.88;5013470;28;20050;-79
2023/02/10 05:20:15;;;;;;;46.20;23.90;;;;;;;3.91;67.99;101666.00;5013414;28;20057;-79
2023/02/10 05:22:42;;;;;;;46.33;24.55;;;;;;;3.91;68.41;101658.19;5013385;28;20089;-79
2023/02/10 05:25:08;;;;;;;36.75;22.83;;;;;;;3.93;68.08;101655.59;5013417;28;20422;-79
2023/02/10 05:27:36;;;;;;;50.08;23.95;;;;;;;3.95;68.15;101657.34;5013762;28;20084;-79
2023/02/10 05:30:32;;;;;;;45.92;23.33;;;;;;;3.94;70.21;101663.41;5013266;28;20062;-78
2023/02/10 05:32:59;;;;;;;36.67;22.65;;;;;;;4.00;68.18;101663.41;5009880;28;20482;-79
2023/02/10 05:35:33;;;;;;;42.88;23.02;;;;;;;3.99;69.87;101677.31;5012728;28;20511;-78
2023/02/10 05:38:01;;;;;;;40.90;22.58;;;;;;;4.03;68.68;101668.63;5013156;28;20477;-79
2023/02/10 05:40:28;;;;;;;40.67;22.30;;;;;;;4.04;68.36;101672.97;5013081;28;20092;-79
2023/02/10 05:42:56;;;;;;;47.42;24.65;;;;;;;4.06;68.34;101669.50;5013136;28;20046;-79
2023/02/10 05:45:23;;;;;;;51.08;24.27;;;;;;;4.07;68.66;101674.72;5012765;28;20058;-78
2023/02/10 05:47:51;;;;;;;42.58;23.60;;;;;;;4.08;68.16;101671.25;5012890;28;20658;-79
2023/02/10 05:50:18;;;;;;;39.08;22.80;;;;;;;4.11;68.25;101675.59;5013068;28;20054;-78
2023/02/10 05:52:45;;;;;;;43.22;24.42;;;;;;;4.11;68.34;101680.81;5013043;28;20112;-78
2023/02/10 05:55:11;;;;;;;38.78;21.70;;;;;;;4.11;67.96;101678.22;5012667;28;20502;-79
2023/02/10 05:57:39;;;;;;;45.70;24.10;;;;;;;4.11;68.11;101683.41;5012734;28;20046;-80
2023/02/10 06:00:07;;;;;;;41.17;22.73;;;;;;;4.10;67.61;101682.53;5012434;28;20054;-79
2023/02/10 06:02:34;;;;;;;43.75;25.73;;;;;;;4.08;67.40;101684.28;5010830;28;20078;-79
2023/02/10 06:05:02;;;;;;;40.88;23.92;;;;;;;4.07;67.38;101690.34;5012425;28;20544;-79
2023/02/10 06:07:55;;;;;;;44.78;24.58;;;;;;;4.01;68.57;101682.53;4995293;28;20050;-79
2023/02/10 06:10:29;;;;;;;;;;;;;;;4.03;68.75;101688.59;5011986;28;20058;-79
2023/02/10 06:12:58;;;;;;;40.47;21.88;;;;;;;4.03;67.05;101697.31;5012607;28;20529;-79
2023/02/10 06:15:25;;;;;;;41.15;23.80;;;;;;;3.99;66.82;101698.16;5012410;28;20041;-79
2023/02/10 06:18:24;;;;;;;46.10;26.55;;;;;;;3.92;68.01;101693.78;4994813;28;20045;-78
2023/02/10 06:21:20;;;;;;;42.00;23.90;;;;;;;3.88;68.60;101697.25;5012925;28;20045;-79
2023/02/10 06:23:47;;;;;;;43.28;24.95;;;;;;;3.87;67.32;101698.13;5012261;28;20052;-78
2023/02/10 06:26:14;;;;;;;49.50;25.25;;;;;;;3.84;67.23;101692.91;5012820;28;20054;-78
2023/02/10 06:29:07;;;;;;;49.38;25.55;;;;;;;3.75;68.06;101698.97;4995662;28;20082;-78
2023/02/10 06:32:30;;;;;;;47.53;25.00;;;;;;;3.68;69.06;101702.41;5012559;28;20045;-78
2023/02/10 06:35:00;;;;;;;53.05;25.35;;;;;;;3.66;67.23;101702.41;5007647;28;20049;-78
2023/02/10 06:37:30;;;;;;;57.33;26.45;;;;;;;3.59;67.87;101696.31;5011897;28;20053;-78
2023/02/10 06:40:11;;;;;;;61.63;25.58;;;;;;;3.55;67.46;101701.53;5010026;28;20061;-79
2023/02/10 06:42:41;;;;;;;54.28;28.38;;;;;;;3.48;68.20;101698.88;4994101;28;20060;-79
2023/02/10 06:45:55;;;;;;;40.05;24.33;;;;;;;3.41;69.52;101698.84;5011198;28;20053;-78
2023/02/10 06:48:23;;;;;;;51.97;27.35;;;;;;;3.40;68.43;101697.97;5006084;28;20107;-79
2023/02/10 06:50:52;;;;;;;55.53;27.23;;;;;;;3.38;68.49;101699.72;5011783;28;20057;-78
2023/02/10 06:53:19;;;;;;;50.28;26.00;;;;;;;3.35;68.47;101703.19;4994190;28;20119;-78
2023/02/10 06:56:21;;;;;;;84.57;27.42;;;;;;;3.34;68.68;101697.94;5011366;28;20104;-79
2023/02/10 06:59:05;;;;;;;117.93;25.45;;;;;;;3.33;69.19;101712.69;4950683;29;20069;-79
2023/02/10 07:02:09;;;;;;;72.82;25.48;;;;;;;3.32;68.61;101716.16;4934849;29;20504;-78
2023/02/10 07:05:00;;;;;;;83.68;25.13;;;;;;;3.31;68.33;101714.44;4946591;29;20068;-78
2023/02/10 07:07:27;;;;;;;66.00;24.67;;;;;;;3.30;68.38;101712.69;4958948;28;20172;-79
2023/02/10 07:09:55;;;;;;;88.80;26.38;;;;;;;3.32;68.95;101712.72;5010494;28;20050;-79
2023/02/10 07:12:24;;;;;;;133.10;28.42;;;;;;;3.32;68.63;101723.97;5010809;28;20082;-79
2023/02/10 07:14:54;;;;;;;74.57;26.40;;;;;;;3.34;69.36;101723.97;5011349;28;20149;-78
2023/02/10 07:17:21;;;;;;;113.38;28.67;;;;;;;3.35;69.81;101730.91;5010950;28;20057;-78
2023/02/10 07:19:49;;;;;;;67.20;27.75;;;;;;;3.36;69.46;101730.94;5010359;28;20130;-78
2023/02/10 07:22:15;;;;;;;74.38;31.05;;;;;;;3.37;69.89;101737.03;5010887;28;20049;-78
2023/02/10 07:24:44;;;;;;;70.55;28.08;;;;;;;3.38;69.65;101731.84;5010857;28;20060;-81
2023/02/10 07:27:15;;;;;;;82.90;28.35;;;;;;;3.40;70.20;101734.41;5010998;28;20081;-80
2023/02/10 07:29:42;;;;;;;71.95;27.83;;;;;;;3.44;69.70;101736.16;5011081;28;20046;-79
2023/02/10 07:32:12;;;;;;;102.85;28.13;;;;;;;3.47;70.13;101732.72;5011296;28;20054;-79
2023/02/10 07:34:43;;;;;;;57.50;26.40;;;;;;;3.50;69.92;101728.41;4993789;28;20056;-79
2023/02/10 07:37:13;;;;;;;;;;;;;;;3.54;72.44;101733.63;4994446;28;20054;-79
2023/02/10 07:39:43;;;;;;;66.25;29.50;;;;;;;3.58;69.67;101733.63;5011128;28;20016;-79
2023/02/10 07:42:13;;;;;;;78.60;28.80;;;;;;;3.58;69.85;101724.94;5010464;28;20058;-79
2023/02/10 07:44:41;;;;;;;98.20;31.38;;;;;;;3.59;70.40;101744.94;5010903;28;20050;-80
2023/02/10 07:47:10;;;;;;;99.32;30.55;;;;;;;3.60;70.43;101742.34;5010959;28;20054;-79
2023/02/10 07:49:38;;;;;;;92.53;32.08;;;;;;;3.63;70.28;101741.47;5011118;28;20068;-80
2023/02/10 07:52:05;;;;;;;148.63;35.70;;;;;;;3.64;70.32;101754.53;5010580;28;20084;-78
2023/02/10 07:54:33;;;;;;;93.00;33.47;;;;;;;3.68;70.63;101750.19;4993634;28;20050;-79
2023/02/10 07:57:01;;;;;;;137.70;35.83;;;;;;;3.70;70.35;101740.63;5013861;28;20053;-79
2023/02/10 07:59:28;;;;;;;160.85;37.20;;;;;;;3.73;70.15;101747.56;5015228;28;20049;-79
2023/02/10 08:02:05;;;;;;;195.05;36.92;;;;;;;3.75;70.52;101744.13;5015233;28;20402;-79
2023/02/10 08:04:32;;;;;;;196.85;37.92;;;;;;;3.77;70.40;101739.78;4998000;28;20053;-79
2023/02/10 08:07:01;;;;;;;133.90;35.00;;;;;;;3.78;70.47;101751.94;5013988;28;20120;-79
2023/02/10 08:09:30;;;;;;;155.63;39.65;;;;;;;3.79;70.33;101747.63;5015053;28;20056;-79
2023/02/10 08:11:58;;;;;;;106.50;35.83;;;;;;;3.81;70.63;101752.84;5015083;28;20104;-80
2023/02/10 08:14:28;;;;;;;120.00;38.42;;;;;;;3.82;70.39;101747.63;4997168;28;20050;-79
2023/02/10 08:16:56;;;;;;;124.88;38.22;;;;;;;3.83;70.34;101749.38;4981342;28;20451;-79
2023/02/10 08:19:25;;;;;;;75.93;36.22;;;;;;;3.85;70.35;101758.03;5013870;28;20054;-80
2023/02/10 08:21:52;;;;;;;87.80;35.97;;;;;;;3.87;70.23;101758.06;5013703;28;20132;-80
2023/02/10 08:24:19;;;;;;;87.13;39.45;;;;;;;3.88;70.53;101752.84;5014463;28;20137;-79
2023/02/10 08:26:52;;;;;;;78.22;37.67;;;;;;;3.87;71.45;101760.66;5014444;28;20057;-79
2023/02/10 08:29:19;;;;;;;74.63;37.28;;;;;;;3.91;70.73;101757.19;5014770;28;20061;-80
2023/02/10 08:31:49;;;;;;;79.68;37.55;;;;;;;3.91;70.99;101758.09;5014368;28;20088;-79
2023/02/10 08:34:19;;;;;;;79.15;38.85;;;;;;;3.94;71.00;101757.22;5014803;28;20046;-79
2023/02/10 08:36:47;;;;;;;73.53;41.40;;;;;;;3.98;71.25;101764.19;5013772;28;20144;-79
2023/02/10 08:39:16;;;;;;;71.18;39.95;;;;;;;4.01;71.41;101760.72;5014171;28;20104;-79
2023/02/10 08:41:47;;;;;;;73.03;40.75;;;;;;;4.05;70.91;101765.06;5014255;28;20049;-79
2023/02/10 08:44:16;;;;;;;69.80;38.10;;;;;;;4.08;70.94;101769.41;5014017;28;20045;-80
2023/02/10 08:46:44;;;;;;;73.05;38.25;;;;;;;4.11;71.04;101778.09;4996535;28;20494;-79
2023/02/10 08:49:11;;;;;;;71.55;38.78;;;;;;;4.14;71.15;101770.31;5013796;28;20045;-80
2023/02/10 08:51:38;;;;;;;76.60;40.25;;;;;;;4.16;71.11;101781.59;5014334;28;20050;-79
2023/02/10 08:54:07;;;;;;;81.28;40.10;;;;;;;4.19;71.11;101777.25;4996793;28;20075;-79
2023/02/10 08:56:36;;;;;;;76.03;38.80;;;;;;;4.23;71.08;101790.28;4996932;28;20093;-79
2023/02/10 08:59:03;;;;;;;73.00;39.30;;;;;;;4.25;71.01;101783.34;5049079;23;20474;-79
2023/02/10 09:01:34;;;;;;;74.15;40.70;;;;;;;4.28;71.43;101796.41;5033261;28;20064;-81
2023/02/10 09:04:01;;;;;;;71.00;39.88;;;;;;;4.33;71.18;101796.41;5015652;28;20107;-80
2023/02/10 09:06:38;;;;;;;77.50;42.22;;;;;;;4.36;71.56;101795.53;5033252;28;20050;-78
2023/02/10 09:09:22;;;;;;;77.85;41.70;;;;;;;4.37;72.22;101794.69;5016095;28;20056;-78
2023/02/10 09:11:54;;;;;;;77.93;41.63;;;;;;;4.43;70.89;101787.75;5033243;28;20053;-78
2023/02/10 09:14:22;;;;;;;77.95;41.08;;;;;;;4.46;70.81;101792.09;5016199;28;20042;-80
2023/02/10 09:16:51;;;;;;;76.05;40.55;;;;;;;4.49;70.57;101784.25;5032647;28;20055;-79
2023/02/10 09:19:19;;;;;;;71.03;38.60;;;;;;;4.51;70.89;101790.34;5033331;28;20095;-78
2023/02/10 09:21:59;;;;;;;67.10;38.60;;;;;;;4.55;70.54;101791.22;5032836;28;20052;-78
2023/02/10 09:24:26;;;;;;;78.75;42.35;;;;;;;4.57;70.94;101782.53;5033123;28;20516;-78
2023/02/10 09:26:52;;;;;;;81.68;42.88;;;;;;;4.60;70.83;101781.66;5033216;28;20053;-78
2023/02/10 09:29:23;;;;;;;78.47;41.05;;;;;;;4.61;70.62;101767.78;5033231;28;20056;-78
2023/02/10 09:32:00;;;;;;;76.80;41.30;;;;;;;4.64;70.83;101772.13;5032659;28;20054;-77
2023/02/10 09:34:32;;;;;;;77.32;44.20;;;;;;;4.63;71.06;101759.94;5033174;28;20054;-80
2023/02/10 09:37:01;;;;;;;73.50;42.65;;;;;;;4.64;70.81;101766.91;5032716;28;20046;-78
2023/02/10 09:39:31;;;;;;;75.47;41.30;;;;;;;4.66;70.82;101772.97;5033268;28;20053;-78
2023/02/10 09:42:28;;;;;;;75.25;41.88;;;;;;;4.63;71.52;101773.00;5033076;28;20123;-78
2023/02/10 09:45:09;;;;;;;74.95;41.30;;;;;;;4.65;71.63;101777.34;5032645;28;20547;-79
2023/02/10 09:47:47;;;;;;;71.22;38.90;;;;;;;4.69;71.21;101780.81;5032917;28;20073;-78
2023/02/10 09:50:29;;;;;;;84.53;42.47;;;;;;;4.71;71.74;101786.03;5032840;28;20042;-78
2023/02/10 09:53:17;;;;;;;74.82;40.00;;;;;;;4.74;71.43;101786.88;5032461;28;20061;-78
2023/02/10 09:55:57;;;;;;;73.47;39.13;;;;;;;4.79;71.31;101794.72;5031023;28;20049;-80
2023/02/10 09:58:26;;;;;;;69.70;40.15;;;;;;;4.83;70.40;101797.31;5032664;28;20045;-78
2023/02/10 10:00:58;;;;;;;72.05;39.22;;;;;;;4.85;70.79;101799.94;5032671;28;20052;-79
2023/02/10 10:03:37;;;;;;;79.75;41.42;;;;;;;4.87;71.03;101797.31;5032615;28;20061;-78
2023/02/10 10:06:38;;;;;;;67.10;37.80;;;;;;;4.86;71.60;101804.28;5015433;28;20045;-79
2023/02/10 10:09:21;;;;;;;76.55;37.55;;;;;;;4.92;70.93;101806.91;5032519;28;20083;-79
2023/02/10 10:11:55;;;;;;;70.95;38.03;;;;;;;4.98;70.99;101811.25;5032391;28;20147;-79
2023/02/10 10:14:31;;;;;;;70.88;38.85;;;;;;;5.02;71.09;101812.13;5032189;28;20136;-80
2023/02/10 10:17:04;;;;;;;74.18;38.30;;;;;;;5.07;70.74;101810.38;5014472;28;20136;-80
2023/02/10 10:20:08;;;;;;;67.63;36.60;;;;;;;5.09;71.22;101803.41;5031466;28;20046;-79
2023/02/10 10:22:45;;;;;;;66.35;37.60;;;;;;;5.15;70.63;101802.53;5031989;28;20041;-79
2023/02/10 10:25:30;;;;;;;71.95;38.22;;;;;;;5.20;70.16;101806.88;5032049;28;20052;-78
2023/02/10 10:28:19;;;;;;;73.07;37.67;;;;;;;5.20;70.37;101811.25;5031965;28;20049;-79
2023/02/10 10:30:47;;;;;;;65.85;36.75;;;;;;;5.25;70.14;101811.22;5031786;28;20132;-78
2023/02/10 10:33:32;;;;;;;66.75;35.63;;;;;;;5.25;70.92;101814.72;5031803;28;20049;-78
2023/02/10 10:36:01;;;;;;;66.90;33.92;;;;;;;5.31;69.97;101806.84;5031798;28;20053;-78
2023/02/10 10:38:35;;;;;;;61.65;33.58;;;;;;;5.34;70.42;101809.47;5031786;28;20433;-80
2023/02/10 10:41:12;;;;;;;62.70;33.50;;;;;;;5.35;69.90;101798.13;5014214;28;20445;-79
2023/02/10 10:43:59;;;;;;;64.60;35.67;;;;;;;5.37;70.10;101799.88;5031824;28;20053;-78
2023/02/10 10:46:33;;;;;;;63.90;33.67;;;;;;;5.43;69.72;101792.91;5031524;28;20439;-78
2023/02/10 10:49:00;;;;;;;60.40;32.35;;;;;;;5.47;69.71;101788.56;5014237;28;20107;-78
2023/02/10 10:51:27;;;;;;;60.25;32.72;;;;;;;5.51;69.69;101795.50;5031500;28;20525;-78
2023/02/10 10:53:56;;;;;;;60.25;31.33;;;;;;;5.53;69.36;101783.28;5031413;28;20050;-79
2023/02/10 10:56:43;;;;;;;73.22;34.40;;;;;;;5.56;69.36;101785.91;5031348;28;20115;-78
2023/02/10 10:59:18;;;;;;;65.88;34.05;;;;;;;5.56;69.54;101783.28;5031353;28;20049;-79
2023/02/10 11:01:47;;;;;;;65.10;31.83;;;;;;;5.63;69.81;101778.03;5031196;28;20049;-82
2023/02/10 11:04:17;;;;;;;63.92;32.45;;;;;;;5.68;69.95;101777.16;5013521;28;20057;-78
2023/02/10 11:06:49;;;;;;;54.40;30.50;;;;;;;5.77;70.22;101772.75;5013414;28;20077;-78
2023/02/10 11:09:31;;;;;;;56.70;30.48;;;;;;;5.89;70.38;101770.09;5031246;28;20084;-79
2023/02/10 11:12:28;;;;;;;61.47;32.58;;;;;;;6.01;70.18;101774.38;5013683;28;20494;-79
2023/02/10 11:14:57;;;;;;;62.40;31.83;;;;;;;6.19;70.54;101767.34;5020590;28;20149;-82
2023/02/10 11:17:26;;;;;;;57.13;31.13;;;;;;;6.35;70.62;101762.88;5013620;28;20061;-79
2023/02/10 11:19:59;;;;;;;58.95;31.10;;;;;;;6.51;70.26;101763.66;5031526;28;20103;-79
2023/02/10 11:22:27;;;;;;;58.05;30.98;;;;;;;6.73;71.37;101768.72;5013641;28;20095;-79
2023/02/10 11:24:57;;;;;;;55.45;29.40;;;;;;;6.97;70.97;101761.53;5013400;28;20057;-80
2023/02/10 11:27:25;;;;;;;56.70;30.33;;;;;;;7.25;71.37;101758.63;5030833;28;20057;-79
2023/02/10 11:29:59;;;;;;;52.83;30.35;;;;;;;7.53;70.34;101756.56;5031400;28;20481;-80
2023/02/10 11:32:34;;;;;;;56.53;30.13;;;;;;;7.84;68.91;101759.69;5031190;28;20050;-79
2023/02/10 11:35:04;;;;;;;53.40;29.58;;;;;;;8.13;69.02;101759.28;5030933;28;20053;-81